ココス (キーリング) 諸島 の空港の天気 - METARとTAF

ココス島国際空港 ( YPCC / CCK ) - ココス諸島 ココス (キーリング) 諸島
飛行場実況気象(Metar)
観測時間06/25 19:30 CCT (06/25 13:00 UTC)
風向・風速東南東 6m/s
視程10km以上
天気現象
なし
気温27℃
湿度70%
気圧1012hPa
METARYPCC 251300Z AUTO 12012KT 9999 // NCD 27/21 Q1012
過去の天気等 Google飛行場航空写真 Wunderground天気予報

過去48時間のMETAR

飛行場予報(TAF)
発表時間: 6/25 17:28 CCT (6/25 10:58 UTC)
予報対象時間: 25日18時 CCT ~ 26日18時 CCT
風向・風速東 5m/s
視程10km以上
天気現象弱いしゅう雨
全天の4割程度の雲 雲底高度 610m
TAF YPCC 251058Z 2512/2612 09010KT 9999 -SHRA SCT020 INTER 2518/2612 3000 SHRA BKN015